sensor_id;sensor_type;location;lat;lon;timestamp;P1;durP1;ratioP1;P2;durP2;ratioP2
70908;SDS011;58554;52.006;5.926;2024-02-04T00:00:22;14.82;;;6.30;;
70908;SDS011;58554;52.006;5.926;2024-02-04T00:02:48;13.07;;;6.13;;
70908;SDS011;58554;52.006;5.926;2024-02-04T00:05:15;15.32;;;6.32;;
70908;SDS011;58554;52.006;5.926;2024-02-04T00:07:42;10.33;;;5.47;;
70908;SDS011;58554;52.006;5.926;2024-02-04T00:10:08;11.65;;;6.00;;
70908;SDS011;58554;52.006;5.926;2024-02-04T00:12:38;10.13;;;5.37;;
70908;SDS011;58554;52.006;5.926;2024-02-04T00:15:05;9.82;;;5.22;;
70908;SDS011;58554;52.006;5.926;2024-02-04T00:17:31;10.20;;;5.27;;
70908;SDS011;58554;52.006;5.926;2024-02-04T00:20:01;11.53;;;5.43;;
70908;SDS011;58554;52.006;5.926;2024-02-04T00:22:29;10.20;;;4.78;;
70908;SDS011;58554;52.006;5.926;2024-02-04T00:24:56;10.27;;;4.90;;
70908;SDS011;58554;52.006;5.926;2024-02-04T00:27:22;8.87;;;5.07;;
70908;SDS011;58554;52.006;5.926;2024-02-04T00:29:51;10.05;;;5.55;;
70908;SDS011;58554;52.006;5.926;2024-02-04T00:32:18;13.00;;;6.03;;
70908;SDS011;58554;52.006;5.926;2024-02-04T00:34:44;10.98;;;5.22;;
70908;SDS011;58554;52.006;5.926;2024-02-04T00:37:11;10.07;;;5.43;;
70908;SDS011;58554;52.006;5.926;2024-02-04T00:39:38;9.40;;;5.00;;
70908;SDS011;58554;52.006;5.926;2024-02-04T00:42:04;8.98;;;4.82;;
70908;SDS011;58554;52.006;5.926;2024-02-04T00:44:31;10.18;;;4.80;;
70908;SDS011;58554;52.006;5.926;2024-02-04T00:47:00;7.75;;;4.22;;
70908;SDS011;58554;52.006;5.926;2024-02-04T00:49:26;8.98;;;4.35;;
70908;SDS011;58554;52.006;5.926;2024-02-04T00:51:53;7.43;;;4.20;;
70908;SDS011;58554;52.006;5.926;2024-02-04T00:54:20;8.68;;;4.70;;
70908;SDS011;58554;52.006;5.926;2024-02-04T00:56:46;9.43;;;5.00;;
70908;SDS011;58554;52.006;5.926;2024-02-04T00:59:13;11.63;;;5.93;;
70908;SDS011;58554;52.006;5.926;2024-02-04T01:01:39;12.23;;;5.60;;
70908;SDS011;58554;52.006;5.926;2024-02-04T01:04:08;13.33;;;6.17;;
70908;SDS011;58554;52.006;5.926;2024-02-04T01:06:35;19.43;;;8.27;;
70908;SDS011;58554;52.006;5.926;2024-02-04T01:09:01;19.07;;;8.37;;
70908;SDS011;58554;52.006;5.926;2024-02-04T01:11:28;19.37;;;8.40;;
70908;SDS011;58554;52.006;5.926;2024-02-04T01:13:55;18.97;;;8.77;;
70908;SDS011;58554;52.006;5.926;2024-02-04T01:16:21;18.02;;;7.97;;
70908;SDS011;58554;52.006;5.926;2024-02-04T01:18:48;19.13;;;8.77;;
70908;SDS011;58554;52.006;5.926;2024-02-04T01:21:17;17.73;;;8.30;;
70908;SDS011;58554;52.006;5.926;2024-02-04T01:23:43;19.42;;;8.50;;
70908;SDS011;58554;52.006;5.926;2024-02-04T01:26:10;19.03;;;8.43;;
70908;SDS011;58554;52.006;5.926;2024-02-04T01:28:36;17.77;;;8.67;;
70908;SDS011;58554;52.006;5.926;2024-02-04T01:31:03;17.57;;;8.60;;
70908;SDS011;58554;52.006;5.926;2024-02-04T01:33:30;20.13;;;8.23;;
70908;SDS011;58554;52.006;5.926;2024-02-04T01:35:56;18.70;;;8.67;;
70908;SDS011;58554;52.006;5.926;2024-02-04T01:38:25;18.03;;;8.30;;
70908;SDS011;58554;52.006;5.926;2024-02-04T01:40:52;19.40;;;9.20;;
70908;SDS011;58554;52.006;5.926;2024-02-04T01:43:18;17.63;;;8.43;;
70908;SDS011;58554;52.006;5.926;2024-02-04T01:45:45;17.37;;;8.33;;
70908;SDS011;58554;52.006;5.926;2024-02-04T01:48:11;22.57;;;9.90;;
70908;SDS011;58554;52.006;5.926;2024-02-04T01:50:38;20.43;;;8.40;;
70908;SDS011;58554;52.006;5.926;2024-02-04T01:53:05;16.92;;;8.05;;
70908;SDS011;58554;52.006;5.926;2024-02-04T01:55:34;19.30;;;8.23;;
70908;SDS011;58554;52.006;5.926;2024-02-04T01:58:02;21.67;;;8.97;;
70908;SDS011;58554;52.006;5.926;2024-02-04T02:00:29;19.80;;;8.20;;
70908;SDS011;58554;52.006;5.926;2024-02-04T02:02:56;17.33;;;7.63;;
70908;SDS011;58554;52.006;5.926;2024-02-04T02:05:25;18.80;;;8.10;;
70908;SDS011;58554;52.006;5.926;2024-02-04T02:07:52;19.17;;;8.17;;
70908;SDS011;58554;52.006;5.926;2024-02-04T02:10:19;16.93;;;7.17;;
70908;SDS011;58554;52.006;5.926;2024-02-04T02:12:50;17.77;;;7.93;;
70908;SDS011;58554;52.006;5.926;2024-02-04T02:15:25;18.03;;;7.73;;
70908;SDS011;58554;52.006;5.926;2024-02-04T02:18:01;17.70;;;7.20;;
70908;SDS011;58554;52.006;5.926;2024-02-04T02:20:38;15.45;;;6.70;;
70908;SDS011;58554;52.006;5.926;2024-02-04T02:23:29;15.97;;;7.57;;
70908;SDS011;58554;52.006;5.926;2024-02-04T02:26:03;17.50;;;7.57;;
70908;SDS011;58554;52.006;5.926;2024-02-04T02:28:32;14.87;;;6.57;;
70908;SDS011;58554;52.006;5.926;2024-02-04T02:30:59;14.73;;;7.15;;
70908;SDS011;58554;52.006;5.926;2024-02-04T02:33:25;15.73;;;7.30;;
70908;SDS011;58554;52.006;5.926;2024-02-04T02:35:53;17.67;;;7.60;;
70908;SDS011;58554;52.006;5.926;2024-02-04T02:38:30;15.37;;;7.50;;
70908;SDS011;58554;52.006;5.926;2024-02-04T02:41:09;15.77;;;7.35;;
70908;SDS011;58554;52.006;5.926;2024-02-04T02:43:41;16.27;;;7.03;;
70908;SDS011;58554;52.006;5.926;2024-02-04T02:46:12;18.10;;;6.90;;
70908;SDS011;58554;52.006;5.926;2024-02-04T02:48:39;15.88;;;7.10;;
70908;SDS011;58554;52.006;5.926;2024-02-04T02:51:07;16.58;;;7.57;;
70908;SDS011;58554;52.006;5.926;2024-02-04T02:53:33;12.23;;;6.30;;
70908;SDS011;58554;52.006;5.926;2024-02-04T02:56:00;16.10;;;6.83;;
70908;SDS011;58554;52.006;5.926;2024-02-04T02:58:29;14.70;;;6.72;;
70908;SDS011;58554;52.006;5.926;2024-02-04T03:00:55;14.43;;;6.72;;
70908;SDS011;58554;52.006;5.926;2024-02-04T03:03:22;14.07;;;6.47;;
70908;SDS011;58554;52.006;5.926;2024-02-04T03:05:48;20.20;;;7.03;;
70908;SDS011;58554;52.006;5.926;2024-02-04T03:08:15;17.02;;;6.65;;
70908;SDS011;58554;52.006;5.926;2024-02-04T03:10:41;17.75;;;7.10;;
70908;SDS011;58554;52.006;5.926;2024-02-04T03:13:08;14.50;;;6.23;;
70908;SDS011;58554;52.006;5.926;2024-02-04T03:15:37;16.27;;;7.07;;
70908;SDS011;58554;52.006;5.926;2024-02-04T03:18:03;16.55;;;7.45;;
70908;SDS011;58554;52.006;5.926;2024-02-04T03:20:30;16.63;;;7.47;;
70908;SDS011;58554;52.006;5.926;2024-02-04T03:22:56;18.93;;;7.67;;
70908;SDS011;58554;52.006;5.926;2024-02-04T03:25:23;18.98;;;7.85;;
70908;SDS011;58554;52.006;5.926;2024-02-04T03:27:49;15.48;;;7.07;;
70908;SDS011;58554;52.006;5.926;2024-02-04T03:30:16;20.00;;;7.83;;
70908;SDS011;58554;52.006;5.926;2024-02-04T03:32:45;20.60;;;8.52;;
70908;SDS011;58554;52.006;5.926;2024-02-04T03:35:12;17.33;;;7.70;;
70908;SDS011;58554;52.006;5.926;2024-02-04T03:37:39;19.98;;;8.23;;
70908;SDS011;58554;52.006;5.926;2024-02-04T03:40:06;24.67;;;8.07;;
70908;SDS011;58554;52.006;5.926;2024-02-04T03:42:34;19.93;;;8.50;;
70908;SDS011;58554;52.006;5.926;2024-02-04T03:45:00;18.83;;;8.27;;
70908;SDS011;58554;52.006;5.926;2024-02-04T03:47:27;18.00;;;8.00;;
70908;SDS011;58554;52.006;5.926;2024-02-04T03:49:56;21.77;;;8.10;;
70908;SDS011;58554;52.006;5.926;2024-02-04T03:52:22;27.93;;;7.90;;
70908;SDS011;58554;52.006;5.926;2024-02-04T03:54:49;18.67;;;8.23;;
70908;SDS011;58554;52.006;5.926;2024-02-04T03:57:15;17.23;;;7.50;;
70908;SDS011;58554;52.006;5.926;2024-02-04T03:59:44;16.77;;;7.30;;
70908;SDS011;58554;52.006;5.926;2024-02-04T04:02:11;18.00;;;6.90;;
70908;SDS011;58554;52.006;5.926;2024-02-04T04:04:39;14.70;;;6.67;;
70908;SDS011;58554;52.006;5.926;2024-02-04T04:07:09;17.00;;;6.70;;
70908;SDS011;58554;52.006;5.926;2024-02-04T04:09:35;19.23;;;7.10;;
70908;SDS011;58554;52.006;5.926;2024-02-04T04:12:02;16.50;;;6.30;;
70908;SDS011;58554;52.006;5.926;2024-02-04T04:14:29;13.17;;;6.20;;
70908;SDS011;58554;52.006;5.926;2024-02-04T04:16:55;16.42;;;6.07;;
70908;SDS011;58554;52.006;5.926;2024-02-04T04:19:22;12.23;;;5.73;;
70908;SDS011;58554;52.006;5.926;2024-02-04T04:21:48;13.57;;;6.17;;
70908;SDS011;58554;52.006;5.926;2024-02-04T04:24:17;13.80;;;6.07;;
70908;SDS011;58554;52.006;5.926;2024-02-04T04:26:44;14.33;;;6.03;;
70908;SDS011;58554;52.006;5.926;2024-02-04T04:29:10;14.18;;;5.63;;
70908;SDS011;58554;52.006;5.926;2024-02-04T04:31:37;15.57;;;6.53;;
70908;SDS011;58554;52.006;5.926;2024-02-04T04:34:03;15.47;;;6.30;;
70908;SDS011;58554;52.006;5.926;2024-02-04T04:36:30;16.33;;;6.57;;
70908;SDS011;58554;52.006;5.926;2024-02-04T04:38:56;14.13;;;6.43;;
70908;SDS011;58554;52.006;5.926;2024-02-04T04:41:25;13.07;;;6.32;;
70908;SDS011;58554;52.006;5.926;2024-02-04T04:43:52;13.60;;;5.80;;
70908;SDS011;58554;52.006;5.926;2024-02-04T04:46:21;17.40;;;6.93;;
70908;SDS011;58554;52.006;5.926;2024-02-04T04:48:47;15.77;;;6.83;;
70908;SDS011;58554;52.006;5.926;2024-02-04T04:51:14;17.77;;;7.00;;
70908;SDS011;58554;52.006;5.926;2024-02-04T04:53:40;17.10;;;6.83;;
70908;SDS011;58554;52.006;5.926;2024-02-04T04:56:07;14.93;;;6.73;;
70908;SDS011;58554;52.006;5.926;2024-02-04T04:58:37;16.40;;;7.30;;
70908;SDS011;58554;52.006;5.926;2024-02-04T05:01:04;14.37;;;6.57;;
70908;SDS011;58554;52.006;5.926;2024-02-04T05:03:30;17.43;;;6.80;;
70908;SDS011;58554;52.006;5.926;2024-02-04T05:05:57;17.77;;;6.77;;
70908;SDS011;58554;52.006;5.926;2024-02-04T05:08:24;13.40;;;6.37;;
70908;SDS011;58554;52.006;5.926;2024-02-04T05:10:50;13.85;;;6.00;;
70908;SDS011;58554;52.006;5.926;2024-02-04T05:13:17;10.98;;;5.90;;
70908;SDS011;58554;52.006;5.926;2024-02-04T05:15:46;15.13;;;5.85;;
70908;SDS011;58554;52.006;5.926;2024-02-04T05:18:12;14.35;;;6.78;;
70908;SDS011;58554;52.006;5.926;2024-02-04T05:20:39;16.30;;;6.03;;
70908;SDS011;58554;52.006;5.926;2024-02-04T05:23:05;13.20;;;5.78;;
70908;SDS011;58554;52.006;5.926;2024-02-04T05:25:32;13.32;;;5.90;;
70908;SDS011;58554;52.006;5.926;2024-02-04T05:27:58;12.35;;;5.60;;
70908;SDS011;58554;52.006;5.926;2024-02-04T05:30:25;14.65;;;5.35;;
70908;SDS011;58554;52.006;5.926;2024-02-04T05:32:54;14.80;;;5.50;;
70908;SDS011;58554;52.006;5.926;2024-02-04T05:35:21;12.70;;;4.97;;
70908;SDS011;58554;52.006;5.926;2024-02-04T05:37:47;16.97;;;5.90;;
70908;SDS011;58554;52.006;5.926;2024-02-04T05:40:14;13.70;;;5.63;;
70908;SDS011;58554;52.006;5.926;2024-02-04T05:42:40;15.67;;;5.83;;
70908;SDS011;58554;52.006;5.926;2024-02-04T05:45:07;12.75;;;5.32;;
70908;SDS011;58554;52.006;5.926;2024-02-04T05:47:35;15.35;;;5.65;;
70908;SDS011;58554;52.006;5.926;2024-02-04T05:50:04;10.85;;;5.53;;
70908;SDS011;58554;52.006;5.926;2024-02-04T05:52:32;15.50;;;5.40;;
70908;SDS011;58554;52.006;5.926;2024-02-04T05:54:59;10.33;;;4.97;;
70908;SDS011;58554;52.006;5.926;2024-02-04T05:57:25;12.93;;;5.55;;
70908;SDS011;58554;52.006;5.926;2024-02-04T05:59:52;13.05;;;5.55;;
70908;SDS011;58554;52.006;5.926;2024-02-04T06:02:18;11.80;;;5.50;;
70908;SDS011;58554;52.006;5.926;2024-02-04T06:04:45;13.18;;;5.90;;
70908;SDS011;58554;52.006;5.926;2024-02-04T06:07:14;14.20;;;6.10;;
70908;SDS011;58554;52.006;5.926;2024-02-04T06:09:40;13.73;;;5.70;;
70908;SDS011;58554;52.006;5.926;2024-02-04T06:12:07;15.73;;;6.57;;
70908;SDS011;58554;52.006;5.926;2024-02-04T06:14:34;15.68;;;6.53;;
70908;SDS011;58554;52.006;5.926;2024-02-04T06:17:00;16.10;;;6.47;;
70908;SDS011;58554;52.006;5.926;2024-02-04T06:19:27;11.57;;;5.93;;
70908;SDS011;58554;52.006;5.926;2024-02-04T06:21:53;18.17;;;5.93;;
70908;SDS011;58554;52.006;5.926;2024-02-04T06:24:22;13.43;;;6.07;;
70908;SDS011;58554;52.006;5.926;2024-02-04T06:26:49;17.87;;;6.20;;
70908;SDS011;58554;52.006;5.926;2024-02-04T06:29:19;17.60;;;6.33;;
70908;SDS011;58554;52.006;5.926;2024-02-04T06:31:46;16.80;;;6.07;;
70908;SDS011;58554;52.006;5.926;2024-02-04T06:34:12;13.93;;;6.23;;
70908;SDS011;58554;52.006;5.926;2024-02-04T06:36:42;14.05;;;5.97;;
70908;SDS011;58554;52.006;5.926;2024-02-04T06:39:09;12.33;;;5.87;;
70908;SDS011;58554;52.006;5.926;2024-02-04T06:41:38;16.47;;;6.23;;
70908;SDS011;58554;52.006;5.926;2024-02-04T06:44:05;14.17;;;6.17;;
70908;SDS011;58554;52.006;5.926;2024-02-04T06:46:31;12.63;;;6.53;;
70908;SDS011;58554;52.006;5.926;2024-02-04T06:48:58;14.77;;;6.13;;
70908;SDS011;58554;52.006;5.926;2024-02-04T06:51:24;14.60;;;5.90;;
70908;SDS011;58554;52.006;5.926;2024-02-04T06:53:51;12.30;;;6.20;;
70908;SDS011;58554;52.006;5.926;2024-02-04T06:56:17;16.17;;;6.37;;
70908;SDS011;58554;52.006;5.926;2024-02-04T06:58:46;16.88;;;7.13;;
70908;SDS011;58554;52.006;5.926;2024-02-04T07:01:14;15.13;;;6.40;;
70908;SDS011;58554;52.006;5.926;2024-02-04T07:03:40;18.30;;;6.72;;
70908;SDS011;58554;52.006;5.926;2024-02-04T07:06:07;16.70;;;6.10;;
70908;SDS011;58554;52.006;5.926;2024-02-04T07:08:33;11.80;;;5.40;;
70908;SDS011;58554;52.006;5.926;2024-02-04T07:11:00;17.52;;;6.40;;
70908;SDS011;58554;52.006;5.926;2024-02-04T07:13:26;15.18;;;6.15;;
70908;SDS011;58554;52.006;5.926;2024-02-04T07:15:56;16.85;;;7.40;;
70908;SDS011;58554;52.006;5.926;2024-02-04T07:18:22;18.10;;;8.02;;
70908;SDS011;58554;52.006;5.926;2024-02-04T07:20:49;19.00;;;8.93;;
70908;SDS011;58554;52.006;5.926;2024-02-04T07:23:15;22.70;;;9.20;;
70908;SDS011;58554;52.006;5.926;2024-02-04T07:25:42;20.50;;;8.88;;
70908;SDS011;58554;52.006;5.926;2024-02-04T07:28:09;21.33;;;9.55;;
70908;SDS011;58554;52.006;5.926;2024-02-04T07:30:35;24.70;;;9.83;;
70908;SDS011;58554;52.006;5.926;2024-02-04T07:33:04;20.63;;;9.33;;
70908;SDS011;58554;52.006;5.926;2024-02-04T07:35:31;22.27;;;10.23;;
70908;SDS011;58554;52.006;5.926;2024-02-04T07:37:58;23.67;;;10.27;;
70908;SDS011;58554;52.006;5.926;2024-02-04T07:40:24;25.13;;;10.25;;
70908;SDS011;58554;52.006;5.926;2024-02-04T07:42:51;24.65;;;10.93;;
70908;SDS011;58554;52.006;5.926;2024-02-04T07:45:18;22.20;;;10.17;;
70908;SDS011;58554;52.006;5.926;2024-02-04T07:47:45;23.27;;;9.60;;
70908;SDS011;58554;52.006;5.926;2024-02-04T07:50:14;23.35;;;10.15;;
70908;SDS011;58554;52.006;5.926;2024-02-04T07:52:41;22.57;;;9.63;;
70908;SDS011;58554;52.006;5.926;2024-02-04T07:55:07;23.63;;;9.95;;
70908;SDS011;58554;52.006;5.926;2024-02-04T07:57:34;24.75;;;10.00;;
70908;SDS011;58554;52.006;5.926;2024-02-04T08:00:01;22.63;;;10.05;;
70908;SDS011;58554;52.006;5.926;2024-02-04T08:02:27;20.02;;;9.25;;
70908;SDS011;58554;52.006;5.926;2024-02-04T08:04:54;21.87;;;9.50;;
70908;SDS011;58554;52.006;5.926;2024-02-04T08:07:24;23.77;;;9.67;;
70908;SDS011;58554;52.006;5.926;2024-02-04T08:09:51;19.90;;;9.75;;
70908;SDS011;58554;52.006;5.926;2024-02-04T08:12:17;23.65;;;8.93;;
70908;SDS011;58554;52.006;5.926;2024-02-04T08:14:44;21.58;;;9.13;;
70908;SDS011;58554;52.006;5.926;2024-02-04T08:17:10;18.70;;;7.87;;
70908;SDS011;58554;52.006;5.926;2024-02-04T08:19:37;17.00;;;6.93;;
70908;SDS011;58554;52.006;5.926;2024-02-04T08:22:03;18.52;;;7.20;;
70908;SDS011;58554;52.006;5.926;2024-02-04T08:24:32;16.35;;;6.80;;
70908;SDS011;58554;52.006;5.926;2024-02-04T08:26:59;13.80;;;5.82;;
70908;SDS011;58554;52.006;5.926;2024-02-04T08:29:26;13.13;;;6.05;;
70908;SDS011;58554;52.006;5.926;2024-02-04T08:31:52;13.30;;;5.97;;
70908;SDS011;58554;52.006;5.926;2024-02-04T08:34:19;17.98;;;6.00;;
70908;SDS011;58554;52.006;5.926;2024-02-04T08:36:46;13.80;;;6.00;;
70908;SDS011;58554;52.006;5.926;2024-02-04T08:39:12;15.37;;;5.93;;
70908;SDS011;58554;52.006;5.926;2024-02-04T08:41:41;13.98;;;6.07;;
70908;SDS011;58554;52.006;5.926;2024-02-04T08:44:08;12.90;;;5.80;;
70908;SDS011;58554;52.006;5.926;2024-02-04T08:46:34;12.13;;;5.53;;
70908;SDS011;58554;52.006;5.926;2024-02-04T08:49:01;17.23;;;6.80;;
70908;SDS011;58554;52.006;5.926;2024-02-04T08:51:27;18.97;;;7.20;;
70908;SDS011;58554;52.006;5.926;2024-02-04T08:53:54;15.33;;;6.93;;
70908;SDS011;58554;52.006;5.926;2024-02-04T08:56:20;16.47;;;6.40;;
70908;SDS011;58554;52.006;5.926;2024-02-04T08:58:50;14.17;;;6.37;;
70908;SDS011;58554;52.006;5.926;2024-02-04T09:01:16;14.63;;;6.23;;
70908;SDS011;58554;52.006;5.926;2024-02-04T09:03:43;14.68;;;6.28;;
70908;SDS011;58554;52.006;5.926;2024-02-04T09:06:10;13.43;;;6.20;;
70908;SDS011;58554;52.006;5.926;2024-02-04T09:08:36;17.00;;;6.10;;
70908;SDS011;58554;52.006;5.926;2024-02-04T09:11:03;12.70;;;5.97;;
70908;SDS011;58554;52.006;5.926;2024-02-04T09:13:30;13.67;;;5.43;;
70908;SDS011;58554;52.006;5.926;2024-02-04T09:15:59;14.07;;;6.00;;
70908;SDS011;58554;52.006;5.926;2024-02-04T09:18:25;15.10;;;5.30;;
70908;SDS011;58554;52.006;5.926;2024-02-04T09:20:54;14.30;;;5.67;;
70908;SDS011;58554;52.006;5.926;2024-02-04T09:23:24;11.20;;;5.77;;
70908;SDS011;58554;52.006;5.926;2024-02-04T09:25:51;14.57;;;6.63;;
70908;SDS011;58554;52.006;5.926;2024-02-04T09:28:17;15.50;;;6.50;;
70908;SDS011;58554;52.006;5.926;2024-02-04T09:30:44;16.15;;;6.78;;
70908;SDS011;58554;52.006;5.926;2024-02-04T09:33:13;15.70;;;7.60;;
70908;SDS011;58554;52.006;5.926;2024-02-04T09:35:40;14.10;;;6.50;;
70908;SDS011;58554;52.006;5.926;2024-02-04T09:38:07;15.20;;;6.43;;
70908;SDS011;58554;52.006;5.926;2024-02-04T09:40:38;14.13;;;6.67;;
70908;SDS011;58554;52.006;5.926;2024-02-04T09:43:05;15.93;;;6.90;;
70908;SDS011;58554;52.006;5.926;2024-02-04T09:45:33;14.35;;;6.50;;
70908;SDS011;58554;52.006;5.926;2024-02-04T09:48:01;13.95;;;6.78;;
70908;SDS011;58554;52.006;5.926;2024-02-04T09:50:32;13.02;;;6.90;;
70908;SDS011;58554;52.006;5.926;2024-02-04T09:52:59;17.50;;;7.23;;
70908;SDS011;58554;52.006;5.926;2024-02-04T09:55:31;15.25;;;7.15;;
70908;SDS011;58554;52.006;5.926;2024-02-04T09:57:59;12.38;;;6.10;;
70908;SDS011;58554;52.006;5.926;2024-02-04T10:00:25;15.68;;;6.55;;
70908;SDS011;58554;52.006;5.926;2024-02-04T10:03:02;11.73;;;6.23;;
70908;SDS011;58554;52.006;5.926;2024-02-04T10:05:51;13.57;;;6.30;;
70908;SDS011;58554;52.006;5.926;2024-02-04T10:08:18;13.65;;;6.30;;
70908;SDS011;58554;52.006;5.926;2024-02-04T10:10:46;15.35;;;6.47;;
70908;SDS011;58554;52.006;5.926;2024-02-04T10:13:13;11.73;;;6.00;;
70908;SDS011;58554;52.006;5.926;2024-02-04T10:15:40;11.73;;;6.57;;
70908;SDS011;58554;52.006;5.926;2024-02-04T10:18:23;11.87;;;5.20;;
70908;SDS011;58554;52.006;5.926;2024-02-04T10:21:00;8.40;;;5.10;;
70908;SDS011;58554;52.006;5.926;2024-02-04T10:23:26;9.37;;;4.80;;
70908;SDS011;58554;52.006;5.926;2024-02-04T10:25:57;12.17;;;5.30;;
70908;SDS011;58554;52.006;5.926;2024-02-04T10:28:25;11.87;;;5.27;;
70908;SDS011;58554;52.006;5.926;2024-02-04T10:30:52;16.10;;;5.23;;
70908;SDS011;58554;52.006;5.926;2024-02-04T10:33:18;10.23;;;4.43;;
70908;SDS011;58554;52.006;5.926;2024-02-04T10:35:46;10.10;;;4.37;;
70908;SDS011;58554;52.006;5.926;2024-02-04T10:38:15;11.40;;;5.20;;
70908;SDS011;58554;52.006;5.926;2024-02-04T10:40:42;10.37;;;5.13;;
70908;SDS011;58554;52.006;5.926;2024-02-04T10:43:11;9.23;;;4.57;;
70908;SDS011;58554;52.006;5.926;2024-02-04T10:45:39;8.77;;;4.60;;
70908;SDS011;58554;52.006;5.926;2024-02-04T10:48:10;8.03;;;4.50;;
70908;SDS011;58554;52.006;5.926;2024-02-04T10:50:41;9.13;;;4.23;;
70908;SDS011;58554;52.006;5.926;2024-02-04T10:53:15;8.50;;;4.43;;
70908;SDS011;58554;52.006;5.926;2024-02-04T10:55:46;8.73;;;4.03;;
70908;SDS011;58554;52.006;5.926;2024-02-04T10:58:15;7.77;;;3.70;;
70908;SDS011;58554;52.006;5.926;2024-02-04T11:00:51;8.55;;;3.40;;
70908;SDS011;58554;52.006;5.926;2024-02-04T11:03:18;8.20;;;3.63;;
70908;SDS011;58554;52.006;5.926;2024-02-04T11:05:47;7.07;;;3.50;;
70908;SDS011;58554;52.006;5.926;2024-02-04T11:08:21;7.90;;;2.97;;
70908;SDS011;58554;52.006;5.926;2024-02-04T11:11:04;6.30;;;2.67;;
70908;SDS011;58554;52.006;5.926;2024-02-04T11:13:31;6.00;;;2.60;;
70908;SDS011;58554;52.006;5.926;2024-02-04T11:16:02;9.00;;;2.50;;
70908;SDS011;58554;52.006;5.926;2024-02-04T11:19:05;6.00;;;2.63;;
70908;SDS011;58554;52.006;5.926;2024-02-04T11:25:13;5.47;;;2.30;;
70908;SDS011;58554;52.006;5.926;2024-02-04T11:28:07;5.40;;;2.05;;
70908;SDS011;58554;52.006;5.926;2024-02-04T11:30:35;5.35;;;2.10;;
70908;SDS011;58554;52.006;5.926;2024-02-04T11:33:02;4.53;;;2.10;;
70908;SDS011;58554;52.006;5.926;2024-02-04T11:35:30;5.57;;;1.73;;
70908;SDS011;58554;52.006;5.926;2024-02-04T11:37:58;3.83;;;1.80;;
70908;SDS011;58554;52.006;5.926;2024-02-04T11:40:31;3.95;;;1.58;;
70908;SDS011;58554;52.006;5.926;2024-02-04T11:43:04;4.00;;;1.83;;
70908;SDS011;58554;52.006;5.926;2024-02-04T11:45:32;2.25;;;1.50;;
70908;SDS011;58554;52.006;5.926;2024-02-04T11:48:03;3.53;;;1.30;;
70908;SDS011;58554;52.006;5.926;2024-02-04T11:50:33;1.70;;;0.95;;
70908;SDS011;58554;52.006;5.926;2024-02-04T11:55:55;2.42;;;0.95;;
70908;SDS011;58554;52.006;5.926;2024-02-04T11:58:22;1.80;;;1.10;;
70908;SDS011;58554;52.006;5.926;2024-02-04T12:00:50;2.70;;;1.10;;
70908;SDS011;58554;52.006;5.926;2024-02-04T12:03:18;2.10;;;1.13;;
70908;SDS011;58554;52.006;5.926;2024-02-04T12:05:55;2.53;;;1.40;;
70908;SDS011;58554;52.006;5.926;2024-02-04T12:08:22;3.03;;;1.30;;
70908;SDS011;58554;52.006;5.926;2024-02-04T12:10:50;3.50;;;1.90;;
70908;SDS011;58554;52.006;5.926;2024-02-04T12:13:21;5.07;;;2.00;;
70908;SDS011;58554;52.006;5.926;2024-02-04T12:15:48;5.17;;;2.60;;
70908;SDS011;58554;52.006;5.926;2024-02-04T12:18:14;3.78;;;2.40;;
70908;SDS011;58554;52.006;5.926;2024-02-04T12:20:42;5.30;;;3.17;;
70908;SDS011;58554;52.006;5.926;2024-02-04T12:23:08;7.30;;;3.60;;
70908;SDS011;58554;52.006;5.926;2024-02-04T12:25:36;7.35;;;3.67;;
70908;SDS011;58554;52.006;5.926;2024-02-04T12:28:02;7.37;;;4.40;;
70908;SDS011;58554;52.006;5.926;2024-02-04T12:30:34;11.00;;;5.20;;
70908;SDS011;58554;52.006;5.926;2024-02-04T12:33:01;12.45;;;5.32;;
70908;SDS011;58554;52.006;5.926;2024-02-04T12:35:29;8.57;;;4.90;;
70908;SDS011;58554;52.006;5.926;2024-02-04T12:37:57;10.50;;;5.30;;
70908;SDS011;58554;52.006;5.926;2024-02-04T12:40:26;10.18;;;5.63;;
70908;SDS011;58554;52.006;5.926;2024-02-04T12:42:54;10.35;;;5.40;;
70908;SDS011;58554;52.006;5.926;2024-02-04T12:45:22;12.77;;;5.83;;
70908;SDS011;58554;52.006;5.926;2024-02-04T12:47:52;12.37;;;5.67;;
70908;SDS011;58554;52.006;5.926;2024-02-04T12:50:21;12.23;;;5.63;;
70908;SDS011;58554;52.006;5.926;2024-02-04T12:53:00;10.17;;;5.00;;
70908;SDS011;58554;52.006;5.926;2024-02-04T12:55:29;12.40;;;5.20;;
70908;SDS011;58554;52.006;5.926;2024-02-04T12:58:02;9.38;;;5.20;;
70908;SDS011;58554;52.006;5.926;2024-02-04T13:00:31;13.20;;;5.03;;
70908;SDS011;58554;52.006;5.926;2024-02-04T13:03:01;12.00;;;4.88;;
70908;SDS011;58554;52.006;5.926;2024-02-04T13:05:28;14.25;;;5.05;;
70908;SDS011;58554;52.006;5.926;2024-02-04T13:07:55;9.63;;;5.32;;
70908;SDS011;58554;52.006;5.926;2024-02-04T13:10:23;11.88;;;5.55;;
70908;SDS011;58554;52.006;5.926;2024-02-04T13:13:00;12.63;;;5.55;;
70908;SDS011;58554;52.006;5.926;2024-02-04T13:15:29;14.30;;;5.43;;
70908;SDS011;58554;52.006;5.926;2024-02-04T13:18:00;13.10;;;5.50;;
70908;SDS011;58554;52.006;5.926;2024-02-04T13:20:27;11.00;;;5.60;;
70908;SDS011;58554;52.006;5.926;2024-02-04T13:22:53;12.77;;;5.53;;
70908;SDS011;58554;52.006;5.926;2024-02-04T13:25:20;12.63;;;6.30;;
70908;SDS011;58554;52.006;5.926;2024-02-04T13:27:47;11.98;;;5.45;;
70908;SDS011;58554;52.006;5.926;2024-02-04T13:30:15;9.50;;;5.20;;
70908;SDS011;58554;52.006;5.926;2024-02-04T13:32:42;9.23;;;5.07;;
70908;SDS011;58554;52.006;5.926;2024-02-04T13:35:16;9.40;;;5.18;;
70908;SDS011;58554;52.006;5.926;2024-02-04T13:37:44;13.00;;;5.50;;
70908;SDS011;58554;52.006;5.926;2024-02-04T13:40:13;9.63;;;4.32;;
70908;SDS011;58554;52.006;5.926;2024-02-04T13:42:41;13.30;;;5.50;;
70908;SDS011;58554;52.006;5.926;2024-02-04T13:45:07;10.80;;;5.03;;
70908;SDS011;58554;52.006;5.926;2024-02-04T13:47:35;10.75;;;4.97;;
70908;SDS011;58554;52.006;5.926;2024-02-04T13:50:01;10.40;;;5.30;;
70908;SDS011;58554;52.006;5.926;2024-02-04T13:52:31;10.43;;;5.30;;
70908;SDS011;58554;52.006;5.926;2024-02-04T13:54:57;12.13;;;5.18;;
70908;SDS011;58554;52.006;5.926;2024-02-04T13:57:24;14.07;;;6.00;;
70908;SDS011;58554;52.006;5.926;2024-02-04T13:59:50;11.70;;;5.22;;
70908;SDS011;58554;52.006;5.926;2024-02-04T14:02:17;9.35;;;5.40;;
70908;SDS011;58554;52.006;5.926;2024-02-04T14:04:44;10.57;;;5.53;;
70908;SDS011;58554;52.006;5.926;2024-02-04T14:07:11;15.10;;;6.23;;
70908;SDS011;58554;52.006;5.926;2024-02-04T14:09:41;16.07;;;6.10;;
70908;SDS011;58554;52.006;5.926;2024-02-04T14:12:07;15.40;;;6.20;;
70908;SDS011;58554;52.006;5.926;2024-02-04T14:14:34;12.33;;;6.00;;
70908;SDS011;58554;52.006;5.926;2024-02-04T14:17:01;12.48;;;6.40;;
70908;SDS011;58554;52.006;5.926;2024-02-04T14:19:27;17.73;;;6.10;;
70908;SDS011;58554;52.006;5.926;2024-02-04T14:21:54;10.73;;;5.53;;
70908;SDS011;58554;52.006;5.926;2024-02-04T14:24:20;11.88;;;5.75;;
70908;SDS011;58554;52.006;5.926;2024-02-04T14:26:55;14.98;;;6.15;;
70908;SDS011;58554;52.006;5.926;2024-02-04T14:29:22;12.68;;;5.43;;
70908;SDS011;58554;52.006;5.926;2024-02-04T14:31:49;10.93;;;6.03;;
70908;SDS011;58554;52.006;5.926;2024-02-04T14:34:16;15.07;;;6.28;;
70908;SDS011;58554;52.006;5.926;2024-02-04T14:36:47;10.90;;;6.00;;
70908;SDS011;58554;52.006;5.926;2024-02-04T14:40:27;11.43;;;5.67;;
70908;SDS011;58554;52.006;5.926;2024-02-04T14:42:19;15.73;;;6.70;;
70908;SDS011;58554;52.006;5.926;2024-02-04T14:47:36;12.53;;;6.43;;
70908;SDS011;58554;52.006;5.926;2024-02-04T14:50:07;12.93;;;6.50;;